sensor_id;sensor_type;location;lat;lon;timestamp;P1;durP1;ratioP1;P2;durP2;ratioP2
17361;SDS011;8798;51.938;4.348;2023-03-01T00:01:14;7.87;;;4.33;;
17361;SDS011;8798;51.938;4.348;2023-03-01T00:03:43;7.53;;;4.67;;
17361;SDS011;8798;51.938;4.348;2023-03-01T00:06:11;7.87;;;4.77;;
17361;SDS011;8798;51.938;4.348;2023-03-01T00:08:40;8.73;;;4.57;;
17361;SDS011;8798;51.938;4.348;2023-03-01T00:11:09;6.67;;;4.30;;
17361;SDS011;8798;51.938;4.348;2023-03-01T00:13:41;6.53;;;4.00;;
17361;SDS011;8798;51.938;4.348;2023-03-01T00:16:11;6.90;;;4.43;;
17361;SDS011;8798;51.938;4.348;2023-03-01T00:18:41;7.17;;;4.30;;
17361;SDS011;8798;51.938;4.348;2023-03-01T00:21:11;7.57;;;4.13;;
17361;SDS011;8798;51.938;4.348;2023-03-01T00:23:39;8.17;;;4.90;;
17361;SDS011;8798;51.938;4.348;2023-03-01T00:26:08;5.63;;;3.67;;
17361;SDS011;8798;51.938;4.348;2023-03-01T00:28:37;7.60;;;4.87;;
17361;SDS011;8798;51.938;4.348;2023-03-01T00:31:07;8.00;;;4.57;;
17361;SDS011;8798;51.938;4.348;2023-03-01T00:33:37;7.53;;;4.63;;
17361;SDS011;8798;51.938;4.348;2023-03-01T00:36:05;7.43;;;4.20;;
17361;SDS011;8798;51.938;4.348;2023-03-01T00:38:34;8.73;;;4.37;;
17361;SDS011;8798;51.938;4.348;2023-03-01T00:41:03;7.40;;;4.70;;
17361;SDS011;8798;51.938;4.348;2023-03-01T00:43:32;6.33;;;4.40;;
17361;SDS011;8798;51.938;4.348;2023-03-01T00:46:03;8.40;;;4.47;;
17361;SDS011;8798;51.938;4.348;2023-03-01T00:48:34;8.57;;;4.20;;
17361;SDS011;8798;51.938;4.348;2023-03-01T00:51:06;8.13;;;4.73;;
17361;SDS011;8798;51.938;4.348;2023-03-01T00:53:35;8.80;;;4.70;;
17361;SDS011;8798;51.938;4.348;2023-03-01T00:56:03;7.80;;;4.67;;
17361;SDS011;8798;51.938;4.348;2023-03-01T00:58:33;7.70;;;4.53;;
17361;SDS011;8798;51.938;4.348;2023-03-01T01:01:06;9.37;;;4.93;;
17361;SDS011;8798;51.938;4.348;2023-03-01T01:03:45;8.23;;;4.90;;
17361;SDS011;8798;51.938;4.348;2023-03-01T01:06:15;6.43;;;4.43;;
17361;SDS011;8798;51.938;4.348;2023-03-01T01:08:44;7.70;;;4.67;;
17361;SDS011;8798;51.938;4.348;2023-03-01T01:11:12;6.93;;;4.00;;
17361;SDS011;8798;51.938;4.348;2023-03-01T01:13:40;8.57;;;4.80;;
17361;SDS011;8798;51.938;4.348;2023-03-01T01:16:08;9.50;;;4.37;;
17361;SDS011;8798;51.938;4.348;2023-03-01T01:18:36;6.47;;;4.07;;
17361;SDS011;8798;51.938;4.348;2023-03-01T01:21:07;6.40;;;4.57;;
17361;SDS011;8798;51.938;4.348;2023-03-01T01:23:36;9.90;;;4.90;;
17361;SDS011;8798;51.938;4.348;2023-03-01T01:26:05;8.63;;;5.00;;
17361;SDS011;8798;51.938;4.348;2023-03-01T01:28:34;7.90;;;4.30;;
17361;SDS011;8798;51.938;4.348;2023-03-01T01:31:02;8.87;;;4.60;;
17361;SDS011;8798;51.938;4.348;2023-03-01T01:33:31;7.00;;;4.57;;
17361;SDS011;8798;51.938;4.348;2023-03-01T01:35:59;9.33;;;5.17;;
17361;SDS011;8798;51.938;4.348;2023-03-01T01:38:28;10.57;;;5.40;;
17361;SDS011;8798;51.938;4.348;2023-03-01T01:40:56;9.10;;;4.97;;
17361;SDS011;8798;51.938;4.348;2023-03-01T01:43:25;7.13;;;4.77;;
17361;SDS011;8798;51.938;4.348;2023-03-01T01:45:55;10.20;;;4.87;;
17361;SDS011;8798;51.938;4.348;2023-03-01T01:48:25;8.53;;;4.57;;
17361;SDS011;8798;51.938;4.348;2023-03-01T01:51:07;8.97;;;5.07;;
17361;SDS011;8798;51.938;4.348;2023-03-01T01:53:40;8.53;;;5.10;;
17361;SDS011;8798;51.938;4.348;2023-03-01T01:56:09;8.67;;;4.87;;
17361;SDS011;8798;51.938;4.348;2023-03-01T01:58:40;8.80;;;4.80;;
17361;SDS011;8798;51.938;4.348;2023-03-01T02:01:10;9.67;;;4.77;;
17361;SDS011;8798;51.938;4.348;2023-03-01T02:03:39;9.30;;;4.80;;
17361;SDS011;8798;51.938;4.348;2023-03-01T02:06:15;9.67;;;5.23;;
17361;SDS011;8798;51.938;4.348;2023-03-01T02:08:48;10.70;;;5.37;;
17361;SDS011;8798;51.938;4.348;2023-03-01T02:11:19;9.27;;;4.80;;
17361;SDS011;8798;51.938;4.348;2023-03-01T02:13:48;7.90;;;5.00;;
17361;SDS011;8798;51.938;4.348;2023-03-01T02:16:16;6.73;;;4.37;;
17361;SDS011;8798;51.938;4.348;2023-03-01T02:18:45;9.60;;;5.20;;
17361;SDS011;8798;51.938;4.348;2023-03-01T02:21:35;9.57;;;5.37;;
17361;SDS011;8798;51.938;4.348;2023-03-01T02:24:13;9.57;;;4.80;;
17361;SDS011;8798;51.938;4.348;2023-03-01T02:26:53;9.33;;;4.83;;
17361;SDS011;8798;51.938;4.348;2023-03-01T02:29:25;13.57;;;6.27;;
17361;SDS011;8798;51.938;4.348;2023-03-01T02:31:56;9.83;;;4.97;;
17361;SDS011;8798;51.938;4.348;2023-03-01T02:34:26;8.00;;;5.23;;
17361;SDS011;8798;51.938;4.348;2023-03-01T02:36:56;8.83;;;5.67;;
17361;SDS011;8798;51.938;4.348;2023-03-01T02:39:28;9.83;;;5.63;;
17361;SDS011;8798;51.938;4.348;2023-03-01T02:42:00;9.40;;;5.70;;
17361;SDS011;8798;51.938;4.348;2023-03-01T02:44:31;10.10;;;6.20;;
17361;SDS011;8798;51.938;4.348;2023-03-01T02:47:00;10.50;;;5.63;;
17361;SDS011;8798;51.938;4.348;2023-03-01T02:49:31;11.67;;;6.07;;
17361;SDS011;8798;51.938;4.348;2023-03-01T02:52:04;11.00;;;6.10;;
17361;SDS011;8798;51.938;4.348;2023-03-01T02:54:41;9.73;;;5.97;;
17361;SDS011;8798;51.938;4.348;2023-03-01T02:57:14;8.77;;;5.97;;
17361;SDS011;8798;51.938;4.348;2023-03-01T02:59:44;13.00;;;6.67;;
17361;SDS011;8798;51.938;4.348;2023-03-01T03:02:19;12.87;;;7.17;;
17361;SDS011;8798;51.938;4.348;2023-03-01T03:05:06;11.03;;;5.73;;
17361;SDS011;8798;51.938;4.348;2023-03-01T03:07:36;10.70;;;6.20;;
17361;SDS011;8798;51.938;4.348;2023-03-01T03:10:07;12.93;;;6.17;;
17361;SDS011;8798;51.938;4.348;2023-03-01T03:12:37;11.43;;;5.80;;
17361;SDS011;8798;51.938;4.348;2023-03-01T03:15:08;10.47;;;5.87;;
17361;SDS011;8798;51.938;4.348;2023-03-01T03:17:39;13.37;;;6.27;;
17361;SDS011;8798;51.938;4.348;2023-03-01T03:20:12;12.07;;;6.50;;
17361;SDS011;8798;51.938;4.348;2023-03-01T03:22:45;10.83;;;5.87;;
17361;SDS011;8798;51.938;4.348;2023-03-01T03:25:14;10.83;;;6.07;;
17361;SDS011;8798;51.938;4.348;2023-03-01T03:27:43;10.90;;;6.60;;
17361;SDS011;8798;51.938;4.348;2023-03-01T03:30:14;11.90;;;6.33;;
17361;SDS011;8798;51.938;4.348;2023-03-01T03:32:44;11.50;;;6.03;;
17361;SDS011;8798;51.938;4.348;2023-03-01T03:35:19;11.13;;;6.50;;
17361;SDS011;8798;51.938;4.348;2023-03-01T03:37:48;14.20;;;6.93;;
17361;SDS011;8798;51.938;4.348;2023-03-01T03:40:33;10.53;;;5.97;;
17361;SDS011;8798;51.938;4.348;2023-03-01T03:43:02;10.93;;;5.93;;
17361;SDS011;8798;51.938;4.348;2023-03-01T03:45:32;11.93;;;6.70;;
17361;SDS011;8798;51.938;4.348;2023-03-01T03:48:01;10.07;;;5.80;;
17361;SDS011;8798;51.938;4.348;2023-03-01T03:50:31;11.33;;;6.50;;
17361;SDS011;8798;51.938;4.348;2023-03-01T03:53:00;15.33;;;7.10;;
17361;SDS011;8798;51.938;4.348;2023-03-01T03:55:28;10.83;;;6.40;;
17361;SDS011;8798;51.938;4.348;2023-03-01T03:57:57;12.90;;;6.97;;
17361;SDS011;8798;51.938;4.348;2023-03-01T04:00:28;13.63;;;6.70;;
17361;SDS011;8798;51.938;4.348;2023-03-01T04:02:57;11.70;;;6.00;;
17361;SDS011;8798;51.938;4.348;2023-03-01T04:05:25;11.67;;;6.20;;
17361;SDS011;8798;51.938;4.348;2023-03-01T04:07:53;13.50;;;7.07;;
17361;SDS011;8798;51.938;4.348;2023-03-01T04:10:28;13.90;;;6.50;;
17361;SDS011;8798;51.938;4.348;2023-03-01T04:12:57;13.23;;;7.17;;
17361;SDS011;8798;51.938;4.348;2023-03-01T04:15:26;10.33;;;6.33;;
17361;SDS011;8798;51.938;4.348;2023-03-01T04:17:54;10.73;;;6.17;;
17361;SDS011;8798;51.938;4.348;2023-03-01T04:20:24;10.07;;;6.13;;
17361;SDS011;8798;51.938;4.348;2023-03-01T04:22:56;12.13;;;6.20;;
17361;SDS011;8798;51.938;4.348;2023-03-01T04:25:25;11.90;;;6.27;;
17361;SDS011;8798;51.938;4.348;2023-03-01T04:27:53;12.07;;;6.33;;
17361;SDS011;8798;51.938;4.348;2023-03-01T04:30:21;10.97;;;6.20;;
17361;SDS011;8798;51.938;4.348;2023-03-01T04:32:51;11.83;;;6.53;;
17361;SDS011;8798;51.938;4.348;2023-03-01T04:35:19;12.87;;;6.90;;
17361;SDS011;8798;51.938;4.348;2023-03-01T04:37:48;14.90;;;7.40;;
17361;SDS011;8798;51.938;4.348;2023-03-01T04:40:17;15.03;;;7.80;;
17361;SDS011;8798;51.938;4.348;2023-03-01T04:42:45;16.17;;;7.83;;
17361;SDS011;8798;51.938;4.348;2023-03-01T04:45:13;14.87;;;7.83;;
17361;SDS011;8798;51.938;4.348;2023-03-01T04:47:42;19.47;;;8.53;;
17361;SDS011;8798;51.938;4.348;2023-03-01T04:50:12;18.73;;;8.53;;
17361;SDS011;8798;51.938;4.348;2023-03-01T04:52:42;17.57;;;7.70;;
17361;SDS011;8798;51.938;4.348;2023-03-01T04:55:11;18.50;;;8.80;;
17361;SDS011;8798;51.938;4.348;2023-03-01T04:57:39;18.20;;;7.93;;
17361;SDS011;8798;51.938;4.348;2023-03-01T05:00:09;16.23;;;7.30;;
17361;SDS011;8798;51.938;4.348;2023-03-01T05:02:47;17.40;;;8.17;;
17361;SDS011;8798;51.938;4.348;2023-03-01T05:05:23;18.10;;;7.83;;
17361;SDS011;8798;51.938;4.348;2023-03-01T05:07:53;19.07;;;8.70;;
17361;SDS011;8798;51.938;4.348;2023-03-01T05:10:24;18.87;;;9.23;;
17361;SDS011;8798;51.938;4.348;2023-03-01T05:12:52;17.10;;;8.23;;
17361;SDS011;8798;51.938;4.348;2023-03-01T05:15:20;18.07;;;8.07;;
17361;SDS011;8798;51.938;4.348;2023-03-01T05:17:52;18.40;;;8.47;;
17361;SDS011;8798;51.938;4.348;2023-03-01T05:20:20;21.97;;;9.83;;
17361;SDS011;8798;51.938;4.348;2023-03-01T05:22:50;16.03;;;8.53;;
17361;SDS011;8798;51.938;4.348;2023-03-01T05:25:18;18.50;;;8.47;;
17361;SDS011;8798;51.938;4.348;2023-03-01T05:27:49;15.07;;;8.07;;
17361;SDS011;8798;51.938;4.348;2023-03-01T05:30:17;18.63;;;8.77;;
17361;SDS011;8798;51.938;4.348;2023-03-01T05:32:46;19.70;;;8.80;;
17361;SDS011;8798;51.938;4.348;2023-03-01T05:35:15;15.40;;;7.80;;
17361;SDS011;8798;51.938;4.348;2023-03-01T05:37:45;16.43;;;8.23;;
17361;SDS011;8798;51.938;4.348;2023-03-01T05:40:16;15.67;;;7.70;;
17361;SDS011;8798;51.938;4.348;2023-03-01T05:42:47;13.37;;;7.23;;
17361;SDS011;8798;51.938;4.348;2023-03-01T05:45:17;14.53;;;7.47;;
17361;SDS011;8798;51.938;4.348;2023-03-01T05:47:46;14.97;;;7.90;;
17361;SDS011;8798;51.938;4.348;2023-03-01T05:50:15;15.87;;;7.97;;
17361;SDS011;8798;51.938;4.348;2023-03-01T05:52:46;14.87;;;7.33;;
17361;SDS011;8798;51.938;4.348;2023-03-01T05:55:16;11.83;;;6.73;;
17361;SDS011;8798;51.938;4.348;2023-03-01T05:57:44;11.27;;;6.90;;
17361;SDS011;8798;51.938;4.348;2023-03-01T06:00:15;12.47;;;6.03;;
17361;SDS011;8798;51.938;4.348;2023-03-01T06:02:45;12.17;;;6.87;;
17361;SDS011;8798;51.938;4.348;2023-03-01T06:05:13;13.57;;;7.23;;
17361;SDS011;8798;51.938;4.348;2023-03-01T06:07:42;14.53;;;7.33;;
17361;SDS011;8798;51.938;4.348;2023-03-01T06:10:10;13.87;;;7.50;;
17361;SDS011;8798;51.938;4.348;2023-03-01T06:12:40;11.83;;;6.73;;
17361;SDS011;8798;51.938;4.348;2023-03-01T06:15:10;15.73;;;8.07;;
17361;SDS011;8798;51.938;4.348;2023-03-01T06:17:41;13.43;;;7.13;;
17361;SDS011;8798;51.938;4.348;2023-03-01T06:20:11;11.67;;;6.93;;
17361;SDS011;8798;51.938;4.348;2023-03-01T06:22:41;11.73;;;7.20;;
17361;SDS011;8798;51.938;4.348;2023-03-01T06:25:09;12.40;;;6.90;;
17361;SDS011;8798;51.938;4.348;2023-03-01T06:27:38;10.73;;;6.43;;
17361;SDS011;8798;51.938;4.348;2023-03-01T06:30:07;13.83;;;6.47;;
17361;SDS011;8798;51.938;4.348;2023-03-01T06:32:36;10.67;;;6.00;;
17361;SDS011;8798;51.938;4.348;2023-03-01T06:35:10;11.03;;;6.63;;
17361;SDS011;8798;51.938;4.348;2023-03-01T06:37:39;9.07;;;5.57;;
17361;SDS011;8798;51.938;4.348;2023-03-01T06:40:08;9.93;;;6.00;;
17361;SDS011;8798;51.938;4.348;2023-03-01T06:42:39;9.10;;;5.63;;
17361;SDS011;8798;51.938;4.348;2023-03-01T06:45:09;7.90;;;5.03;;
17361;SDS011;8798;51.938;4.348;2023-03-01T06:47:37;9.90;;;5.50;;
17361;SDS011;8798;51.938;4.348;2023-03-01T06:50:05;10.80;;;5.23;;
17361;SDS011;8798;51.938;4.348;2023-03-01T06:52:35;8.90;;;5.10;;
17361;SDS011;8798;51.938;4.348;2023-03-01T06:55:04;7.93;;;5.17;;
17361;SDS011;8798;51.938;4.348;2023-03-01T06:57:32;7.27;;;5.13;;
17361;SDS011;8798;51.938;4.348;2023-03-01T07:00:00;7.77;;;5.10;;
17361;SDS011;8798;51.938;4.348;2023-03-01T07:02:28;7.60;;;5.10;;
17361;SDS011;8798;51.938;4.348;2023-03-01T07:04:56;7.80;;;4.80;;
17361;SDS011;8798;51.938;4.348;2023-03-01T07:07:23;7.50;;;4.87;;
17361;SDS011;8798;51.938;4.348;2023-03-01T07:09:53;9.43;;;4.90;;
17361;SDS011;8798;51.938;4.348;2023-03-01T07:12:21;7.17;;;4.67;;
17361;SDS011;8798;51.938;4.348;2023-03-01T07:14:48;8.13;;;5.13;;
17361;SDS011;8798;51.938;4.348;2023-03-01T07:17:16;7.17;;;4.80;;
17361;SDS011;8798;51.938;4.348;2023-03-01T07:19:45;9.07;;;5.50;;
17361;SDS011;8798;51.938;4.348;2023-03-01T07:22:13;8.30;;;5.23;;
17361;SDS011;8798;51.938;4.348;2023-03-01T07:24:41;7.90;;;5.07;;
17361;SDS011;8798;51.938;4.348;2023-03-01T07:27:10;6.73;;;4.77;;
17361;SDS011;8798;51.938;4.348;2023-03-01T07:29:38;7.43;;;4.57;;
17361;SDS011;8798;51.938;4.348;2023-03-01T07:32:06;8.17;;;4.77;;
17361;SDS011;8798;51.938;4.348;2023-03-01T07:34:34;8.83;;;5.20;;
17361;SDS011;8798;51.938;4.348;2023-03-01T07:37:02;6.77;;;4.87;;
17361;SDS011;8798;51.938;4.348;2023-03-01T07:39:30;8.40;;;5.13;;
17361;SDS011;8798;51.938;4.348;2023-03-01T07:41:58;9.60;;;5.50;;
17361;SDS011;8798;51.938;4.348;2023-03-01T07:44:28;8.80;;;5.27;;
17361;SDS011;8798;51.938;4.348;2023-03-01T07:46:55;9.03;;;5.70;;
17361;SDS011;8798;51.938;4.348;2023-03-01T07:49:24;10.93;;;6.07;;
17361;SDS011;8798;51.938;4.348;2023-03-01T07:51:53;9.13;;;6.00;;
17361;SDS011;8798;51.938;4.348;2023-03-01T07:54:21;12.23;;;6.40;;
17361;SDS011;8798;51.938;4.348;2023-03-01T07:56:49;15.52;;;9.30;;
17361;SDS011;8798;51.938;4.348;2023-03-01T07:59:17;12.10;;;7.53;;
17361;SDS011;8798;51.938;4.348;2023-03-01T08:01:47;10.83;;;7.00;;
17361;SDS011;8798;51.938;4.348;2023-03-01T08:04:14;10.77;;;6.90;;
17361;SDS011;8798;51.938;4.348;2023-03-01T08:06:42;10.57;;;6.73;;
17361;SDS011;8798;51.938;4.348;2023-03-01T08:09:10;13.63;;;7.30;;
17361;SDS011;8798;51.938;4.348;2023-03-01T08:11:38;11.23;;;6.73;;
17361;SDS011;8798;51.938;4.348;2023-03-01T08:14:06;11.17;;;6.60;;
17361;SDS011;8798;51.938;4.348;2023-03-01T08:16:34;17.23;;;7.23;;
17361;SDS011;8798;51.938;4.348;2023-03-01T08:19:07;10.83;;;6.83;;
17361;SDS011;8798;51.938;4.348;2023-03-01T08:21:36;11.37;;;7.13;;
17361;SDS011;8798;51.938;4.348;2023-03-01T08:24:05;11.73;;;6.67;;
17361;SDS011;8798;51.938;4.348;2023-03-01T08:26:36;11.33;;;6.17;;
17361;SDS011;8798;51.938;4.348;2023-03-01T08:29:04;14.87;;;7.67;;
17361;SDS011;8798;51.938;4.348;2023-03-01T08:31:33;12.37;;;6.60;;
17361;SDS011;8798;51.938;4.348;2023-03-01T08:34:03;12.77;;;6.93;;
17361;SDS011;8798;51.938;4.348;2023-03-01T08:36:34;11.07;;;6.70;;
17361;SDS011;8798;51.938;4.348;2023-03-01T08:39:04;12.40;;;6.73;;
17361;SDS011;8798;51.938;4.348;2023-03-01T08:41:33;12.43;;;6.17;;
17361;SDS011;8798;51.938;4.348;2023-03-01T08:44:01;11.77;;;6.63;;
17361;SDS011;8798;51.938;4.348;2023-03-01T08:46:30;13.63;;;6.70;;
17361;SDS011;8798;51.938;4.348;2023-03-01T08:49:00;12.53;;;6.27;;
17361;SDS011;8798;51.938;4.348;2023-03-01T08:51:31;12.77;;;6.03;;
17361;SDS011;8798;51.938;4.348;2023-03-01T08:54:04;11.33;;;6.27;;
17361;SDS011;8798;51.938;4.348;2023-03-01T08:56:33;9.33;;;5.93;;
17361;SDS011;8798;51.938;4.348;2023-03-01T08:59:01;10.17;;;6.10;;
17361;SDS011;8798;51.938;4.348;2023-03-01T09:01:29;11.33;;;5.67;;
17361;SDS011;8798;51.938;4.348;2023-03-01T09:03:57;10.53;;;6.00;;
17361;SDS011;8798;51.938;4.348;2023-03-01T09:06:25;11.93;;;5.33;;
17361;SDS011;8798;51.938;4.348;2023-03-01T09:08:53;9.87;;;6.07;;
17361;SDS011;8798;51.938;4.348;2023-03-01T09:11:22;10.30;;;6.00;;
17361;SDS011;8798;51.938;4.348;2023-03-01T09:13:50;11.60;;;5.67;;
17361;SDS011;8798;51.938;4.348;2023-03-01T09:16:19;9.50;;;5.37;;
17361;SDS011;8798;51.938;4.348;2023-03-01T09:18:48;11.93;;;6.47;;
17361;SDS011;8798;51.938;4.348;2023-03-01T09:21:18;11.73;;;6.13;;
17361;SDS011;8798;51.938;4.348;2023-03-01T09:24:05;10.73;;;5.60;;
17361;SDS011;8798;51.938;4.348;2023-03-01T09:26:34;10.07;;;5.30;;
17361;SDS011;8798;51.938;4.348;2023-03-01T09:29:02;9.33;;;4.93;;
17361;SDS011;8798;51.938;4.348;2023-03-01T09:31:30;9.07;;;5.10;;
17361;SDS011;8798;51.938;4.348;2023-03-01T09:33:58;9.90;;;4.97;;
17361;SDS011;8798;51.938;4.348;2023-03-01T09:36:26;9.07;;;5.37;;
17361;SDS011;8798;51.938;4.348;2023-03-01T09:38:55;9.60;;;5.73;;
17361;SDS011;8798;51.938;4.348;2023-03-01T09:41:36;7.80;;;4.90;;
17361;SDS011;8798;51.938;4.348;2023-03-01T09:44:16;9.10;;;4.43;;
17361;SDS011;8798;51.938;4.348;2023-03-01T09:46:49;8.07;;;3.97;;
17361;SDS011;8798;51.938;4.348;2023-03-01T09:49:19;9.20;;;4.70;;
17361;SDS011;8798;51.938;4.348;2023-03-01T09:51:54;9.83;;;5.23;;
17361;SDS011;8798;51.938;4.348;2023-03-01T09:54:24;10.73;;;5.17;;
17361;SDS011;8798;51.938;4.348;2023-03-01T09:56:57;10.03;;;5.17;;
17361;SDS011;8798;51.938;4.348;2023-03-01T09:59:33;10.00;;;5.23;;
17361;SDS011;8798;51.938;4.348;2023-03-01T10:02:21;7.83;;;4.53;;
17361;SDS011;8798;51.938;4.348;2023-03-01T10:04:55;9.30;;;4.77;;
17361;SDS011;8798;51.938;4.348;2023-03-01T10:07:35;6.10;;;3.77;;
17361;SDS011;8798;51.938;4.348;2023-03-01T10:10:14;7.67;;;4.33;;
17361;SDS011;8798;51.938;4.348;2023-03-01T10:12:52;6.77;;;4.20;;
17361;SDS011;8798;51.938;4.348;2023-03-01T10:15:22;8.23;;;3.97;;
17361;SDS011;8798;51.938;4.348;2023-03-01T10:18:04;6.47;;;4.33;;
17361;SDS011;8798;51.938;4.348;2023-03-01T10:20:41;7.10;;;4.00;;
17361;SDS011;8798;51.938;4.348;2023-03-01T10:23:13;7.60;;;4.00;;
17361;SDS011;8798;51.938;4.348;2023-03-01T10:25:44;6.80;;;3.33;;
17361;SDS011;8798;51.938;4.348;2023-03-01T10:28:25;9.50;;;4.00;;
17361;SDS011;8798;51.938;4.348;2023-03-01T10:30:57;8.90;;;4.43;;
17361;SDS011;8798;51.938;4.348;2023-03-01T10:33:27;6.33;;;3.73;;
17361;SDS011;8798;51.938;4.348;2023-03-01T10:35:58;6.13;;;3.40;;
17361;SDS011;8798;51.938;4.348;2023-03-01T10:38:48;5.34;;;3.53;;
17361;SDS011;8798;51.938;4.348;2023-03-01T10:41:18;4.87;;;2.70;;
17361;SDS011;8798;51.938;4.348;2023-03-01T10:43:48;3.90;;;2.40;;
17361;SDS011;8798;51.938;4.348;2023-03-01T10:46:24;5.33;;;2.73;;
17361;SDS011;8798;51.938;4.348;2023-03-01T10:49:07;7.13;;;2.73;;
17361;SDS011;8798;51.938;4.348;2023-03-01T10:51:42;6.20;;;2.30;;
17361;SDS011;8798;51.938;4.348;2023-03-01T10:54:18;3.40;;;2.37;;
17361;SDS011;8798;51.938;4.348;2023-03-01T10:56:49;7.13;;;2.83;;
17361;SDS011;8798;51.938;4.348;2023-03-01T10:59:25;4.17;;;2.27;;
17361;SDS011;8798;51.938;4.348;2023-03-01T11:02:02;3.93;;;2.20;;
17361;SDS011;8798;51.938;4.348;2023-03-01T11:04:57;4.60;;;2.73;;
17361;SDS011;8798;51.938;4.348;2023-03-01T11:07:26;5.60;;;2.80;;
17361;SDS011;8798;51.938;4.348;2023-03-01T11:09:55;4.33;;;2.80;;
17361;SDS011;8798;51.938;4.348;2023-03-01T11:12:23;5.47;;;2.67;;
17361;SDS011;8798;51.938;4.348;2023-03-01T11:14:54;3.33;;;2.37;;
17361;SDS011;8798;51.938;4.348;2023-03-01T11:17:23;6.40;;;3.17;;
17361;SDS011;8798;51.938;4.348;2023-03-01T11:20:04;5.40;;;2.60;;
17361;SDS011;8798;51.938;4.348;2023-03-01T11:22:45;4.47;;;3.07;;
17361;SDS011;8798;51.938;4.348;2023-03-01T11:25:15;6.10;;;2.53;;
17361;SDS011;8798;51.938;4.348;2023-03-01T11:27:46;7.07;;;3.27;;
17361;SDS011;8798;51.938;4.348;2023-03-01T11:30:18;6.40;;;3.33;;
17361;SDS011;8798;51.938;4.348;2023-03-01T11:32:53;6.13;;;3.53;;
17361;SDS011;8798;51.938;4.348;2023-03-01T11:35:31;7.90;;;4.27;;
17361;SDS011;8798;51.938;4.348;2023-03-01T11:38:03;5.60;;;3.50;;
17361;SDS011;8798;51.938;4.348;2023-03-01T11:40:44;7.23;;;3.80;;
17361;SDS011;8798;51.938;4.348;2023-03-01T11:43:15;7.17;;;3.97;;
17361;SDS011;8798;51.938;4.348;2023-03-01T11:45:53;8.57;;;3.97;;
17361;SDS011;8798;51.938;4.348;2023-03-01T11:48:41;6.90;;;3.70;;
17361;SDS011;8798;51.938;4.348;2023-03-01T11:51:19;6.33;;;4.07;;
17361;SDS011;8798;51.938;4.348;2023-03-01T11:54:04;7.67;;;3.87;;
17361;SDS011;8798;51.938;4.348;2023-03-01T11:56:49;7.53;;;4.23;;
17361;SDS011;8798;51.938;4.348;2023-03-01T11:59:32;9.23;;;4.33;;
17361;SDS011;8798;51.938;4.348;2023-03-01T12:05:28;6.43;;;3.40;;
17361;SDS011;8798;51.938;4.348;2023-03-01T12:08:31;7.23;;;4.03;;
17361;SDS011;8798;51.938;4.348;2023-03-01T12:11:04;5.93;;;3.63;;
17361;SDS011;8798;51.938;4.348;2023-03-01T12:13:44;9.23;;;3.90;;
17361;SDS011;8798;51.938;4.348;2023-03-01T12:16:32;7.70;;;4.43;;
17361;SDS011;8798;51.938;4.348;2023-03-01T12:19:32;7.90;;;3.93;;
17361;SDS011;8798;51.938;4.348;2023-03-01T12:22:11;6.73;;;4.03;;
17361;SDS011;8798;51.938;4.348;2023-03-01T12:24:54;8.60;;;4.47;;
17361;SDS011;8798;51.938;4.348;2023-03-01T12:27:50;7.70;;;4.63;;
17361;SDS011;8798;51.938;4.348;2023-03-01T12:30:40;8.00;;;4.47;;
17361;SDS011;8798;51.938;4.348;2023-03-01T12:33:20;10.73;;;5.00;;
17361;SDS011;8798;51.938;4.348;2023-03-01T12:36:12;7.73;;;4.73;;
17361;SDS011;8798;51.938;4.348;2023-03-01T12:39:00;8.90;;;4.67;;
17361;SDS011;8798;51.938;4.348;2023-03-01T12:41:42;8.53;;;4.87;;
17361;SDS011;8798;51.938;4.348;2023-03-01T12:47:38;11.87;;;5.47;;
17361;SDS011;8798;51.938;4.348;2023-03-01T12:50:21;10.20;;;5.30;;
17361;SDS011;8798;51.938;4.348;2023-03-01T12:52:53;10.93;;;5.07;;
17361;SDS011;8798;51.938;4.348;2023-03-01T12:55:28;13.60;;;5.03;;
17361;SDS011;8798;51.938;4.348;2023-03-01T12:58:04;10.57;;;5.73;;
17361;SDS011;8798;51.938;4.348;2023-03-01T13:00:38;9.80;;;5.63;;
17361;SDS011;8798;51.938;4.348;2023-03-01T13:03:17;9.47;;;5.30;;
17361;SDS011;8798;51.938;4.348;2023-03-01T13:05:54;9.30;;;5.07;;
17361;SDS011;8798;51.938;4.348;2023-03-01T13:08:38;8.27;;;4.77;;
17361;SDS011;8798;51.938;4.348;2023-03-01T13:11:14;9.53;;;4.90;;
17361;SDS011;8798;51.938;4.348;2023-03-01T13:13:45;9.70;;;5.27;;
17361;SDS011;8798;51.938;4.348;2023-03-01T13:16:27;10.30;;;4.73;;
17361;SDS011;8798;51.938;4.348;2023-03-01T13:19:10;7.17;;;4.40;;
17361;SDS011;8798;51.938;4.348;2023-03-01T13:21:42;7.63;;;4.63;;
17361;SDS011;8798;51.938;4.348;2023-03-01T13:24:25;7.67;;;4.30;;
17361;SDS011;8798;51.938;4.348;2023-03-01T13:27:11;7.87;;;4.50;;
17361;SDS011;8798;51.938;4.348;2023-03-01T13:29:51;8.40;;;4.03;;
17361;SDS011;8798;51.938;4.348;2023-03-01T13:32:21;7.77;;;4.07;;
17361;SDS011;8798;51.938;4.348;2023-03-01T13:41:14;6.97;;;3.83;;
17361;SDS011;8798;51.938;4.348;2023-03-01T13:43:43;7.00;;;3.80;;
17361;SDS011;8798;51.938;4.348;2023-03-01T13:46:16;6.00;;;3.33;;
17361;SDS011;8798;51.938;4.348;2023-03-01T13:48:47;7.73;;;4.17;;
17361;SDS011;8798;51.938;4.348;2023-03-01T13:51:20;6.23;;;3.33;;
17361;SDS011;8798;51.938;4.348;2023-03-01T13:53:50;4.43;;;2.77;;
17361;SDS011;8798;51.938;4.348;2023-03-01T13:56:23;6.53;;;3.53;;
17361;SDS011;8798;51.938;4.348;2023-03-01T13:58:53;6.63;;;3.43;;
17361;SDS011;8798;51.938;4.348;2023-03-01T14:01:27;7.77;;;2.97;;
17361;SDS011;8798;51.938;4.348;2023-03-01T14:03:58;4.70;;;2.77;;
17361;SDS011;8798;51.938;4.348;2023-03-01T14:06:28;7.80;;;2.83;;
17361;SDS011;8798;51.938;4.348;2023-03-01T14:09:02;4.57;;;2.70;;
17361;SDS011;8798;51.938;4.348;2023-03-01T14:14:48;5.67;;;2.97;;
17361;SDS011;8798;51.938;4.348;2023-03-01T14:20:20;4.40;;;2.90;;
17361;SDS011;8798;51.938;4.348;2023-03-01T14:22:52;7.27;;;3.20;;
17361;SDS011;8798;51.938;4.348;2023-03-01T14:25:26;4.73;;;3.17;;
17361;SDS011;8798;51.938;4.348;2023-03-01T14:27:58;5.00;;;2.63;;
17361;SDS011;8798;51.938;4.348;2023-03-01T14:30:32;5.97;;;3.30;;
17361;SDS011;8798;51.938;4.348;2023-03-01T14:33:04;4.77;;;3.03;;
17361;SDS011;8798;51.938;4.348;2023-03-01T14:35:35;5.20;;;3.27;;
17361;SDS011;8798;51.938;4.348;2023-03-01T14:38:04;4.87;;;2.67;;
17361;SDS011;8798;51.938;4.348;2023-03-01T14:40:32;6.13;;;2.83;;
17361;SDS011;8798;51.938;4.348;2023-03-01T14:43:10;5.03;;;2.90;;
17361;SDS011;8798;51.938;4.348;2023-03-01T14:45:42;5.07;;;3.10;;
17361;SDS011;8798;51.938;4.348;2023-03-01T14:48:16;6.07;;;2.70;;
17361;SDS011;8798;51.938;4.348;2023-03-01T14:50:48;4.73;;;2.47;;
17361;SDS011;8798;51.938;4.348;2023-03-01T14:53:17;4.80;;;2.73;;
17361;SDS011;8798;51.938;4.348;2023-03-01T14:55:48;6.07;;;2.93;;
17361;SDS011;8798;51.938;4.348;2023-03-01T14:58:21;5.20;;;2.80;;
17361;SDS011;8798;51.938;4.348;2023-03-01T15:00:51;4.27;;;2.40;;
17361;SDS011;8798;51.938;4.348;2023-03-01T15:03:23;6.43;;;2.80;;
17361;SDS011;8798;51.938;4.348;2023-03-01T15:05:53;5.87;;;2.77;;
17361;SDS011;8798;51.938;4.348;2023-03-01T15:08:23;6.40;;;2.93;;
17361;SDS011;8798;51.938;4.348;2023-03-01T15:10:56;5.53;;;3.17;;
17361;SDS011;8798;51.938;4.348;2023-03-01T15:13:28;10.83;;;3.23;;
17361;SDS011;8798;51.938;4.348;2023-03-01T15:18:45;4.33;;;2.50;;
17361;SDS011;8798;51.938;4.348;2023-03-01T15:21:18;4.23;;;2.57;;
17361;SDS011;8798;51.938;4.348;2023-03-01T15:23:49;4.90;;;2.53;;
17361;SDS011;8798;51.938;4.348;2023-03-01T15:26:27;3.37;;;2.23;;
17361;SDS011;8798;51.938;4.348;2023-03-01T15:28:59;5.10;;;2.53;;
17361;SDS011;8798;51.938;4.348;2023-03-01T15:31:28;4.87;;;2.70;;
17361;SDS011;8798;51.938;4.348;2023-03-01T15:34:19;4.43;;;2.60;;
17361;SDS011;8798;51.938;4.348;2023-03-01T15:36:50;4.37;;;2.67;;
17361;SDS011;8798;51.938;4.348;2023-03-01T15:39:25;4.93;;;2.90;;
17361;SDS011;8798;51.938;4.348;2023-03-01T15:41:59;4.90;;;2.97;;
17361;SDS011;8798;51.938;4.348;2023-03-01T15:44:31;5.13;;;3.07;;
17361;SDS011;8798;51.938;4.348;2023-03-01T15:47:21;5.53;;;3.10;;